createdAt,value
2023-03-26T00:00:58.255Z,100947.63
2023-03-26T00:03:28.884Z,100957.56
2023-03-26T00:06:11.921Z,100958.69
2023-03-26T00:08:44.225Z,100966.69
2023-03-26T00:11:17.121Z,100967.00
2023-03-26T00:13:49.121Z,100971.53
2023-03-26T00:16:22.358Z,100969.44
2023-03-26T00:18:53.990Z,100976.56
2023-03-26T00:21:31.840Z,100984.41
2023-03-26T00:24:06.844Z,100984.06
2023-03-26T00:26:55.686Z,100983.09
2023-03-26T00:29:27.032Z,100987.97
2023-03-26T00:32:15.972Z,100996.28
2023-03-26T00:34:48.561Z,100998.88
2023-03-26T00:37:18.793Z,101004.72
2023-03-26T00:42:38.061Z,101013.22
2023-03-26T00:45:09.980Z,101012.06
2023-03-26T00:47:43.530Z,101016.78
2023-03-26T00:50:17.793Z,101022.16
2023-03-26T00:52:49.835Z,101028.47
2023-03-26T00:55:20.193Z,101020.69
2023-03-26T00:57:50.362Z,101029.31
2023-03-26T01:00:42.349Z,101028.16
2023-03-26T01:03:27.564Z,101026.69
2023-03-26T01:06:13.575Z,101032.72
2023-03-26T01:08:49.538Z,101038.75
2023-03-26T01:11:26.264Z,101033.06
2023-03-26T01:14:02.634Z,101036.63
2023-03-26T01:16:52.401Z,101028.81
2023-03-26T01:19:50.416Z,101047.06
2023-03-26T01:22:24.546Z,101047.84
2023-03-26T01:24:55.820Z,101047.56
2023-03-26T01:27:57.118Z,101063.97
2023-03-26T01:30:39.556Z,101060.91
2023-03-26T01:33:32.362Z,101068.88
2023-03-26T01:36:34.772Z,101058.94
2023-03-26T01:39:33.262Z,101060.09
2023-03-26T01:42:18.592Z,101062.38
2023-03-26T01:45:00.866Z,101068.25
2023-03-26T01:47:32.299Z,101067.91
2023-03-26T01:50:02.633Z,101072.63
2023-03-26T01:52:33.988Z,101074.75
2023-03-26T01:55:05.462Z,101072.28
2023-03-26T01:58:01.493Z,101078.97
2023-03-26T02:00:33.258Z,101085.50
2023-03-26T02:03:22.051Z,101078.97
2023-03-26T02:05:58.718Z,101077.19
2023-03-26T02:08:43.708Z,101078.47
2023-03-26T02:11:19.978Z,101085.69
2023-03-26T02:13:50.586Z,101083.06
2023-03-26T02:16:23.064Z,101080.00
2023-03-26T02:18:58.202Z,101080.16
2023-03-26T02:21:29.537Z,101082.41
2023-03-26T02:24:17.828Z,101081.94
2023-03-26T02:26:49.597Z,101079.66
2023-03-26T02:29:22.757Z,101076.09
2023-03-26T02:31:53.426Z,101083.56
2023-03-26T02:34:45.553Z,101080.00
2023-03-26T02:37:15.932Z,101074.94
2023-03-26T02:39:48.710Z,101075.09
2023-03-26T02:42:28.705Z,101072.19
2023-03-26T02:44:59.328Z,101072.97
2023-03-26T02:47:48.776Z,101076.09
2023-03-26T02:50:57.804Z,101073.31
2023-03-26T02:53:53.526Z,101073.97
2023-03-26T02:56:30.630Z,101073.47
2023-03-26T02:59:26.764Z,101069.22
2023-03-26T03:02:21.369Z,101058.31
2023-03-26T03:04:51.917Z,101063.66
2023-03-26T03:07:22.751Z,101060.75
2023-03-26T03:09:52.969Z,101061.25
2023-03-26T03:12:43.985Z,101057.81
2023-03-26T03:15:14.623Z,101061.03
2023-03-26T03:18:03.195Z,101058.09
2023-03-26T03:20:37.531Z,101051.91
2023-03-26T03:23:07.814Z,101048.78
2023-03-26T03:25:38.228Z,101052.41
2023-03-26T03:30:59.938Z,101047.16
2023-03-26T03:33:50.437Z,101051.06
2023-03-26T03:36:24.999Z,101044.22
2023-03-26T03:41:56.032Z,101039.97
2023-03-26T03:44:26.445Z,101031.16
2023-03-26T03:46:59.365Z,101032.63
2023-03-26T03:49:29.776Z,101025.94
2023-03-26T03:52:01.057Z,101021.72
2023-03-26T03:54:39.031Z,101022.22
2023-03-26T03:57:24.458Z,101031.31
2023-03-26T04:03:08.802Z,101011.41
2023-03-26T04:05:39.223Z,101011.22
2023-03-26T04:08:10.242Z,101001.47
2023-03-26T04:10:58.509Z,101001.56
2023-03-26T04:14:02.808Z,100995.66
2023-03-26T04:16:54.040Z,100990.47
2023-03-26T04:19:25.501Z,100983.25
2023-03-26T04:21:56.861Z,100978.34
2023-03-26T04:24:26.927Z,100983.88
2023-03-26T04:27:30.638Z,100980.47
2023-03-26T04:30:30.841Z,100972.00
2023-03-26T04:33:08.943Z,100956.66
2023-03-26T04:35:44.003Z,100963.94
2023-03-26T04:38:19.103Z,100966.25
2023-03-26T04:40:54.475Z,100962.81
2023-03-26T04:43:49.448Z,100953.28
2023-03-26T04:46:28.743Z,100951.03
2023-03-26T04:49:10.768Z,100940.06
2023-03-26T04:51:44.169Z,100943.44
2023-03-26T04:54:32.730Z,100929.88
2023-03-26T05:00:21.048Z,100914.22
2023-03-26T05:02:58.197Z,100915.03
2023-03-26T05:05:30.686Z,100917.56
2023-03-26T05:08:19.141Z,100909.84
2023-03-26T05:11:13.632Z,100892.59
2023-03-26T05:13:45.251Z,100893.59
2023-03-26T05:16:16.773Z,100891.16
2023-03-26T05:18:57.284Z,100886.06
2023-03-26T05:21:33.925Z,100880.53
2023-03-26T05:24:22.594Z,100876.97
2023-03-26T05:27:11.623Z,100867.25
2023-03-26T05:29:42.303Z,100864.16
2023-03-26T05:32:13.669Z,100864.94
2023-03-26T05:34:43.826Z,100854.91
2023-03-26T05:37:14.137Z,100841.50
2023-03-26T05:40:02.664Z,100830.97
2023-03-26T05:42:45.833Z,100835.34
2023-03-26T05:45:45.428Z,100824.63
2023-03-26T05:48:27.870Z,100824.28
2023-03-26T05:51:00.010Z,100814.69
2023-03-26T05:53:33.759Z,100806.34
2023-03-26T05:58:18.889Z,100794.41
2023-03-26T06:01:10.972Z,100787.34
2023-03-26T06:04:04.545Z,100776.03
2023-03-26T06:06:41.805Z,100773.72
2023-03-26T06:09:14.383Z,100771.63
2023-03-26T06:11:45.840Z,100764.13
2023-03-26T06:14:16.295Z,100757.75
2023-03-26T06:17:07.171Z,100752.78
2023-03-26T06:19:57.202Z,100746.91
2023-03-26T06:22:36.885Z,100737.16
2023-03-26T06:25:25.255Z,100742.50
2023-03-26T06:28:18.335Z,100733.59
2023-03-26T06:36:57.775Z,100722.72
2023-03-26T06:39:29.378Z,100723.19
2023-03-26T06:42:19.362Z,100716.59
2023-03-26T06:45:01.799Z,100704.44
2023-03-26T06:47:37.807Z,100703.66
2023-03-26T06:50:25.975Z,100694.38
2023-03-26T06:53:15.694Z,100687.66
2023-03-26T06:56:10.078Z,100673.19
2023-03-26T06:58:52.481Z,100680.25
2023-03-26T07:01:41.185Z,100670.97
2023-03-26T07:04:30.726Z,100667.75
2023-03-26T07:07:20.613Z,100659.84
2023-03-26T07:10:14.335Z,100651.63
2023-03-26T07:13:11.057Z,100648.84
2023-03-26T07:16:01.426Z,100644.22
2023-03-26T07:18:51.656Z,100635.88
2023-03-26T07:21:25.791Z,100634.09
2023-03-26T07:23:56.753Z,100625.00
2023-03-26T07:30:01.076Z,100624.00
2023-03-26T07:32:51.903Z,100617.75
2023-03-26T07:35:46.665Z,100613.44
2023-03-26T07:38:53.204Z,100610.19
2023-03-26T07:41:55.143Z,100611.59
2023-03-26T07:44:43.953Z,100598.28
2023-03-26T07:47:38.065Z,100600.34
2023-03-26T07:50:22.460Z,100592.94
2023-03-26T07:53:01.761Z,100586.69
2023-03-26T07:56:14.711Z,100586.22
2023-03-26T07:59:13.561Z,100577.97
2023-03-26T08:02:43.576Z,100575.72
2023-03-26T08:06:02.209Z,100576.47
2023-03-26T08:12:57.888Z,100572.91
2023-03-26T08:16:09.047Z,100578.63
2023-03-26T08:18:58.836Z,100559.97
2023-03-26T08:21:34.224Z,100547.50
2023-03-26T08:24:25.357Z,100552.25
2023-03-26T08:30:00.616Z,100543.66
2023-03-26T08:32:32.268Z,100538.09
2023-03-26T08:35:03.576Z,100538.09
2023-03-26T08:37:34.233Z,100536.66
2023-03-26T08:40:04.755Z,100533.88
2023-03-26T08:43:30.267Z,100535.13
2023-03-26T08:46:21.944Z,100535.94
2023-03-26T08:49:23.308Z,100541.41
2023-03-26T08:52:32.779Z,100535.03
2023-03-26T08:55:38.785Z,100534.94
2023-03-26T08:58:30.112Z,100529.47
2023-03-26T09:01:24.651Z,100529.03
2023-03-26T09:04:23.717Z,100524.91
2023-03-26T09:07:30.678Z,100515.16
2023-03-26T09:10:22.631Z,100523.03
2023-03-26T09:13:13.906Z,100518.09
2023-03-26T09:15:54.184Z,100516.47
2023-03-26T09:18:36.406Z,100524.91
2023-03-26T09:21:38.586Z,100519.59
2023-03-26T09:24:45.037Z,100510.09
2023-03-26T09:28:18.607Z,100512.56
2023-03-26T09:31:22.941Z,100514.56
2023-03-26T09:33:59.139Z,100514.09
2023-03-26T09:37:00.153Z,100512.00
2023-03-26T09:39:56.136Z,100516.28
2023-03-26T09:42:49.106Z,100513.84
2023-03-26T09:45:47.897Z,100509.47
2023-03-26T09:48:50.801Z,100501.75
2023-03-26T09:51:25.120Z,100505.78
2023-03-26T09:54:04.856Z,100509.63
2023-03-26T09:57:00.086Z,100500.38
2023-03-26T09:59:55.782Z,100502.47
2023-03-26T10:02:54.628Z,100514.28
2023-03-26T10:09:36.433Z,100512.81
2023-03-26T10:12:21.256Z,100521.16
2023-03-26T10:15:00.835Z,100515.50
2023-03-26T10:18:27.368Z,100519.13
2023-03-26T10:20:59.938Z,100516.50
2023-03-26T10:23:50.659Z,100524.91
2023-03-26T10:26:39.352Z,100523.09
2023-03-26T10:29:46.584Z,100525.31
2023-03-26T10:32:36.082Z,100519.69
2023-03-26T10:35:22.804Z,100517.44
2023-03-26T10:38:21.265Z,100522.22
2023-03-26T10:41:16.071Z,100529.25
2023-03-26T10:44:09.163Z,100529.84
2023-03-26T10:47:08.793Z,100528.91
2023-03-26T10:49:56.522Z,100532.88
2023-03-26T10:52:32.082Z,100539.00
2023-03-26T10:55:19.330Z,100542.16
2023-03-26T10:58:48.849Z,100534.88
2023-03-26T11:01:32.529Z,100545.63
2023-03-26T11:04:28.685Z,100536.75
2023-03-26T11:07:22.795Z,100546.94
2023-03-26T11:10:05.828Z,100541.50
2023-03-26T11:12:43.250Z,100549.16
2023-03-26T11:15:54.823Z,100549.03
2023-03-26T11:18:27.870Z,100540.94
2023-03-26T11:21:24.231Z,100550.44
2023-03-26T11:27:19.065Z,100562.13
2023-03-26T11:30:43.010Z,100563.50
2023-03-26T11:33:21.364Z,100562.47
2023-03-26T11:35:54.859Z,100556.34
2023-03-26T11:38:28.768Z,100562.81
2023-03-26T11:41:29.504Z,100563.38
2023-03-26T11:44:45.955Z,100568.38
2023-03-26T11:47:21.609Z,100576.22
2023-03-26T11:49:53.845Z,100578.41
2023-03-26T11:52:24.613Z,100579.56
2023-03-26T11:54:55.391Z,100578.53
2023-03-26T11:57:31.770Z,100577.38
2023-03-26T12:00:23.533Z,100573.81
2023-03-26T12:02:59.827Z,100575.06
2023-03-26T12:05:38.978Z,100569.41
2023-03-26T12:08:23.993Z,100584.31
2023-03-26T12:14:04.725Z,100587.59
2023-03-26T12:16:35.065Z,100588.44
2023-03-26T12:19:22.118Z,100591.09
2023-03-26T12:21:56.281Z,100592.72
2023-03-26T12:24:30.581Z,100598.13
2023-03-26T12:27:33.248Z,100590.50
2023-03-26T12:30:36.264Z,100608.06
2023-03-26T12:33:17.364Z,100613.38
2023-03-26T12:35:48.000Z,100607.59
2023-03-26T12:38:38.618Z,100616.34
2023-03-26T12:44:52.934Z,100616.13
2023-03-26T12:47:58.314Z,100621.09
2023-03-26T12:50:34.564Z,100617.03
2023-03-26T12:53:23.402Z,100627.78
2023-03-26T12:56:03.976Z,100625.34
2023-03-26T12:59:20.772Z,100629.72
2023-03-26T13:03:44.095Z,100632.97
2023-03-26T13:06:24.063Z,100641.88
2023-03-26T13:09:15.450Z,100644.66
2023-03-26T13:12:09.631Z,100655.19
2023-03-26T13:14:45.617Z,100653.88
2023-03-26T13:17:25.134Z,100659.03
2023-03-26T13:20:01.206Z,100659.28
2023-03-26T13:23:29.048Z,100670.16
2023-03-26T13:26:40.892Z,100666.44
2023-03-26T13:29:37.214Z,100683.03
2023-03-26T13:32:42.821Z,100677.25
2023-03-26T13:35:34.548Z,100683.50
2023-03-26T13:38:42.262Z,100692.72
2023-03-26T13:42:02.381Z,100695.69
2023-03-26T13:44:51.368Z,100708.56
2023-03-26T13:50:36.816Z,100712.19
2023-03-26T13:53:21.840Z,100711.69
2023-03-26T13:55:57.077Z,100713.03
2023-03-26T13:58:44.516Z,100716.22
2023-03-26T14:01:22.775Z,100731.69
2023-03-26T14:04:52.172Z,100732.66
2023-03-26T14:07:55.810Z,100738.66
2023-03-26T14:10:37.799Z,100739.66
2023-03-26T14:13:32.100Z,100737.91
2023-03-26T14:16:17.353Z,100736.28
2023-03-26T14:18:47.664Z,100734.81
2023-03-26T14:21:28.147Z,100736.13
2023-03-26T14:24:22.379Z,100745.56
2023-03-26T14:27:24.264Z,100746.84
2023-03-26T14:30:03.754Z,100756.84
2023-03-26T14:32:55.772Z,100753.53
2023-03-26T14:36:00.018Z,100748.34
2023-03-26T14:38:35.933Z,100753.16
2023-03-26T14:41:32.312Z,100767.66
2023-03-26T14:44:47.631Z,100769.88
2023-03-26T14:47:25.021Z,100767.78
2023-03-26T14:50:18.129Z,100761.56
2023-03-26T14:53:00.854Z,100766.06
2023-03-26T14:55:50.944Z,100768.84
2023-03-26T14:58:26.849Z,100777.56
2023-03-26T15:01:27.606Z,100775.28
2023-03-26T15:04:27.829Z,100779.00
2023-03-26T15:07:07.728Z,100778.53
2023-03-26T15:10:02.622Z,100776.66
2023-03-26T15:12:57.266Z,100779.00
2023-03-26T15:19:40.586Z,100766.56
2023-03-26T15:22:47.975Z,100770.66
2023-03-26T15:25:54.566Z,100769.41
2023-03-26T15:29:06.578Z,100769.28
2023-03-26T15:32:02.738Z,100769.59
2023-03-26T15:35:18.034Z,100770.06
2023-03-26T15:38:03.210Z,100765.66
2023-03-26T15:41:23.420Z,100757.03
2023-03-26T15:44:23.304Z,100760.59
2023-03-26T15:47:19.867Z,100770.06
2023-03-26T15:50:21.848Z,100766.03
2023-03-26T15:52:59.571Z,100769.59
2023-03-26T15:56:22.725Z,100769.13
2023-03-26T15:59:29.529Z,100769.59
2023-03-26T16:02:24.265Z,100771.09
2023-03-26T16:04:59.784Z,100773.06
2023-03-26T16:07:51.090Z,100776.28
2023-03-26T16:10:54.986Z,100782.50
2023-03-26T16:13:30.193Z,100786.44
2023-03-26T16:16:09.392Z,100790.66
2023-03-26T16:18:43.289Z,100789.53
2023-03-26T16:21:36.808Z,100789.19
2023-03-26T16:24:10.736Z,100794.25
2023-03-26T16:26:47.073Z,100795.88
2023-03-26T16:29:20.560Z,100788.25
2023-03-26T16:32:30.918Z,100798.84
2023-03-26T16:35:19.518Z,100790.22
2023-03-26T16:38:13.980Z,100781.75
2023-03-26T16:41:20.672Z,100786.13
2023-03-26T16:44:17.857Z,100786.13
2023-03-26T16:47:23.398Z,100780.09
2023-03-26T16:50:22.997Z,100771.78
2023-03-26T16:53:44.949Z,100782.88
2023-03-26T16:56:15.595Z,100781.25
2023-03-26T16:58:59.475Z,100779.97
2023-03-26T17:01:49.405Z,100770.16
2023-03-26T17:04:28.374Z,100772.47
2023-03-26T17:07:22.761Z,100775.69
2023-03-26T17:10:04.201Z,100776.41
2023-03-26T17:13:13.272Z,100778.34
2023-03-26T17:15:55.770Z,100767.94
2023-03-26T17:18:38.950Z,100765.97
2023-03-26T17:21:12.024Z,100765.16
2023-03-26T17:23:54.399Z,100758.34
2023-03-26T17:26:46.985Z,100758.22
2023-03-26T17:37:53.376Z,100745.50
2023-03-26T17:40:47.669Z,100749.75
2023-03-26T17:43:38.751Z,100743.75
2023-03-26T17:46:27.671Z,100746.84
2023-03-26T17:49:20.775Z,100742.59
2023-03-26T17:52:24.107Z,100743.75
2023-03-26T17:54:58.948Z,100737.50
2023-03-26T17:57:54.839Z,100724.38
2023-03-26T18:00:31.717Z,100737.06
2023-03-26T18:03:07.319Z,100733.94
2023-03-26T18:05:42.826Z,100731.97
2023-03-26T18:08:33.838Z,100733.13
2023-03-26T18:11:22.390Z,100723.66
2023-03-26T18:14:13.569Z,100724.81
2023-03-26T18:16:48.582Z,100720.91
2023-03-26T18:19:21.612Z,100714.09
2023-03-26T18:21:59.165Z,100709.50
2023-03-26T18:24:34.211Z,100706.38
2023-03-26T18:27:13.045Z,100704.28
2023-03-26T18:30:02.690Z,100701.88
2023-03-26T18:32:35.816Z,100699.56
2023-03-26T18:35:24.707Z,100693.03
2023-03-26T18:38:04.065Z,100694.63
2023-03-26T18:40:44.017Z,100691.88
2023-03-26T18:43:28.624Z,100679.53
2023-03-26T18:46:04.892Z,100677.75
2023-03-26T18:48:35.725Z,100677.59
2023-03-26T18:51:08.333Z,100672.41
2023-03-26T18:53:43.821Z,100670.59
2023-03-26T18:56:36.128Z,100668.03
2023-03-26T18:59:35.057Z,100671.13
2023-03-26T19:02:13.328Z,100666.06
2023-03-26T19:04:47.029Z,100665.75
2023-03-26T19:07:29.019Z,100662.81
2023-03-26T19:09:59.534Z,100657.97
2023-03-26T19:12:36.060Z,100656.00
2023-03-26T19:15:13.976Z,100662.00
2023-03-26T19:17:58.223Z,100660.75
2023-03-26T19:20:35.950Z,100661.22
2023-03-26T19:23:07.932Z,100660.75
2023-03-26T19:25:46.543Z,100665.47
2023-03-26T19:28:20.364Z,100663.03
2023-03-26T19:30:56.195Z,100663.69
2023-03-26T19:33:35.085Z,100670.72
2023-03-26T19:36:20.616Z,100672.81
2023-03-26T19:39:24.191Z,100670.38
2023-03-26T19:42:43.111Z,100663.56
2023-03-26T19:45:29.027Z,100658.03
2023-03-26T19:48:12.120Z,100665.19
2023-03-26T19:50:55.857Z,100661.94
2023-03-26T19:53:38.240Z,100658.16
2023-03-26T19:56:28.584Z,100666.81
2023-03-26T19:59:17.664Z,100662.91
2023-03-26T20:01:48.127Z,100657.22
2023-03-26T20:04:19.052Z,100654.13
2023-03-26T20:06:51.497Z,100661.72
2023-03-26T20:09:21.810Z,100658.84
2023-03-26T20:11:54.881Z,100663.22
2023-03-26T20:14:28.279Z,100659.19
2023-03-26T20:16:59.281Z,100655.59
2023-03-26T20:19:30.818Z,100656.72
2023-03-26T20:22:01.378Z,100664.59
2023-03-26T20:24:32.824Z,100666.88
2023-03-26T20:27:21.765Z,100653.84
2023-03-26T20:29:52.094Z,100665.03
2023-03-26T20:32:27.405Z,100661.47
2023-03-26T20:34:57.939Z,100659.06
2023-03-26T20:37:28.757Z,100661.47
2023-03-26T20:39:59.030Z,100661.81
2023-03-26T20:42:29.679Z,100666.66
2023-03-26T20:45:00.282Z,100662.75
2023-03-26T20:47:30.545Z,100662.25
2023-03-26T20:50:20.718Z,100664.25
2023-03-26T20:52:51.609Z,100662.75
2023-03-26T20:55:28.365Z,100660.31
2023-03-26T20:57:58.624Z,100660.31
2023-03-26T21:00:28.947Z,100668.94
2023-03-26T21:03:01.010Z,100664.91
2023-03-26T21:05:32.491Z,100677.94
2023-03-26T21:08:22.571Z,100680.72
2023-03-26T21:10:53.826Z,100679.88
2023-03-26T21:13:34.942Z,100680.72
2023-03-26T21:16:05.839Z,100675.84
2023-03-26T21:18:36.925Z,100682.19
2023-03-26T21:21:52.045Z,100682.19
2023-03-26T21:24:38.954Z,100689.22
2023-03-26T21:27:19.303Z,100691.63
2023-03-26T21:29:50.086Z,100683.31
2023-03-26T21:32:20.509Z,100687.59
2023-03-26T21:34:58.820Z,100688.06
2023-03-26T21:37:30.582Z,100690.00
2023-03-26T21:40:03.082Z,100700.28
2023-03-26T21:42:33.761Z,100705.03
2023-03-26T21:45:04.286Z,100705.03
2023-03-26T21:47:35.963Z,100704.53
2023-03-26T21:50:25.966Z,100713.97
2023-03-26T21:52:56.610Z,100716.28
2023-03-26T21:55:28.259Z,100716.75
2023-03-26T21:58:34.937Z,100722.91
2023-03-26T22:01:30.151Z,100725.38
2023-03-26T22:04:07.269Z,100727.97
2023-03-26T22:06:57.392Z,100729.59
2023-03-26T22:12:04.571Z,100748.97
2023-03-26T22:14:36.120Z,100747.81
2023-03-26T22:17:07.838Z,100752.53
2023-03-26T22:19:38.376Z,100751.09
2023-03-26T22:22:08.673Z,100752.06
2023-03-26T22:24:40.007Z,100762.97
2023-03-26T22:29:57.721Z,100772.25
2023-03-26T22:35:14.924Z,100772.25
2023-03-26T22:37:45.582Z,100786.09
2023-03-26T22:40:17.144Z,100790.00
2023-03-26T22:45:32.963Z,100799.94
2023-03-26T22:48:22.188Z,100808.22
2023-03-26T22:51:03.941Z,100818.81
2023-03-26T22:53:57.068Z,100816.88
2023-03-26T22:56:27.787Z,100821.09
2023-03-26T22:58:58.203Z,100825.00
2023-03-26T23:01:28.673Z,100833.31
2023-03-26T23:03:59.036Z,100832.50
2023-03-26T23:06:29.290Z,100835.63
2023-03-26T23:09:00.343Z,100841.97
2023-03-26T23:14:18.023Z,100852.22
2023-03-26T23:17:07.626Z,100858.41
2023-03-26T23:19:39.465Z,100859.56
2023-03-26T23:22:11.105Z,100861.00
2023-03-26T23:24:41.869Z,100863.94
2023-03-26T23:27:13.161Z,100861.34
2023-03-26T23:29:44.626Z,100870.63
2023-03-26T23:32:23.783Z,100875.19
2023-03-26T23:34:55.328Z,100881.19
2023-03-26T23:37:25.891Z,100880.72
2023-03-26T23:39:56.197Z,100885.13
2023-03-26T23:42:28.292Z,100890.66
2023-03-26T23:45:00.341Z,100890.66
2023-03-26T23:47:36.591Z,100895.53
2023-03-26T23:50:09.573Z,100905.63
2023-03-26T23:55:25.612Z,100918.97
2023-03-26T23:58:13.923Z,100916.69
